sensor_id;sensor_type;location;lat;lon;timestamp;P1;durP1;ratioP1;P2;durP2;ratioP2
21181;SDS011;10749;46.296;7.524;2022-08-21T00:01:24;1.45;;;0.82;;
21181;SDS011;10749;46.296;7.524;2022-08-21T00:03:51;2.65;;;1.00;;
21181;SDS011;10749;46.296;7.524;2022-08-21T00:06:17;1.67;;;1.00;;
21181;SDS011;10749;46.296;7.524;2022-08-21T00:08:43;1.23;;;0.80;;
21181;SDS011;10749;46.296;7.524;2022-08-21T00:11:09;2.22;;;0.98;;
21181;SDS011;10749;46.296;7.524;2022-08-21T00:13:34;2.65;;;1.20;;
21181;SDS011;10749;46.296;7.524;2022-08-21T00:16:00;1.90;;;1.00;;
21181;SDS011;10749;46.296;7.524;2022-08-21T00:18:26;1.02;;;0.80;;
21181;SDS011;10749;46.296;7.524;2022-08-21T00:20:52;1.70;;;0.93;;
21181;SDS011;10749;46.296;7.524;2022-08-21T00:23:17;2.05;;;0.80;;
21181;SDS011;10749;46.296;7.524;2022-08-21T00:25:43;2.70;;;1.08;;
21181;SDS011;10749;46.296;7.524;2022-08-21T00:28:09;2.17;;;0.95;;
21181;SDS011;10749;46.296;7.524;2022-08-21T00:30:35;1.52;;;0.95;;
21181;SDS011;10749;46.296;7.524;2022-08-21T00:33:01;1.83;;;0.95;;
21181;SDS011;10749;46.296;7.524;2022-08-21T00:35:29;1.95;;;1.20;;
21181;SDS011;10749;46.296;7.524;2022-08-21T00:37:57;2.03;;;1.40;;
21181;SDS011;10749;46.296;7.524;2022-08-21T00:40:28;3.28;;;1.17;;
21181;SDS011;10749;46.296;7.524;2022-08-21T00:42:59;2.45;;;1.10;;
21181;SDS011;10749;46.296;7.524;2022-08-21T00:45:27;5.45;;;1.00;;
21181;SDS011;10749;46.296;7.524;2022-08-21T00:47:52;2.15;;;1.38;;
21181;SDS011;10749;46.296;7.524;2022-08-21T00:50:19;2.25;;;1.17;;
21181;SDS011;10749;46.296;7.524;2022-08-21T00:52:45;1.85;;;1.10;;
21181;SDS011;10749;46.296;7.524;2022-08-21T00:55:11;1.83;;;1.05;;
21181;SDS011;10749;46.296;7.524;2022-08-21T00:57:40;1.75;;;1.10;;
21181;SDS011;10749;46.296;7.524;2022-08-21T01:00:12;1.00;;;0.85;;
21181;SDS011;10749;46.296;7.524;2022-08-21T01:02:41;1.33;;;0.85;;
21181;SDS011;10749;46.296;7.524;2022-08-21T01:05:07;1.63;;;0.82;;
21181;SDS011;10749;46.296;7.524;2022-08-21T01:07:33;1.33;;;1.02;;
21181;SDS011;10749;46.296;7.524;2022-08-21T01:09:58;1.55;;;1.00;;
21181;SDS011;10749;46.296;7.524;2022-08-21T01:12:24;1.52;;;0.93;;
21181;SDS011;10749;46.296;7.524;2022-08-21T01:14:50;1.55;;;1.05;;
21181;SDS011;10749;46.296;7.524;2022-08-21T01:17:15;2.03;;;0.90;;
21181;SDS011;10749;46.296;7.524;2022-08-21T01:19:42;1.52;;;0.90;;
21181;SDS011;10749;46.296;7.524;2022-08-21T01:22:08;2.40;;;0.95;;
21181;SDS011;10749;46.296;7.524;2022-08-21T01:24:34;3.45;;;0.80;;
21181;SDS011;10749;46.296;7.524;2022-08-21T01:27:00;1.98;;;1.20;;
21181;SDS011;10749;46.296;7.524;2022-08-21T01:29:29;1.02;;;0.80;;
21181;SDS011;10749;46.296;7.524;2022-08-21T01:31:59;0.98;;;0.90;;
21181;SDS011;10749;46.296;7.524;2022-08-21T01:34:29;2.05;;;0.80;;
21181;SDS011;10749;46.296;7.524;2022-08-21T01:36:55;2.28;;;0.90;;
21181;SDS011;10749;46.296;7.524;2022-08-21T01:39:20;1.30;;;0.88;;
21181;SDS011;10749;46.296;7.524;2022-08-21T01:41:46;1.75;;;0.80;;
21181;SDS011;10749;46.296;7.524;2022-08-21T01:44:11;3.13;;;0.90;;
21181;SDS011;10749;46.296;7.524;2022-08-21T01:46:37;3.35;;;0.90;;
21181;SDS011;10749;46.296;7.524;2022-08-21T01:49:04;1.20;;;0.88;;
21181;SDS011;10749;46.296;7.524;2022-08-21T01:51:29;1.52;;;0.73;;
21181;SDS011;10749;46.296;7.524;2022-08-21T01:53:55;1.58;;;0.73;;
21181;SDS011;10749;46.296;7.524;2022-08-21T01:56:20;0.85;;;0.77;;
21181;SDS011;10749;46.296;7.524;2022-08-21T01:58:46;1.67;;;0.80;;
21181;SDS011;10749;46.296;7.524;2022-08-21T02:01:12;2.55;;;0.88;;
21181;SDS011;10749;46.296;7.524;2022-08-21T02:03:38;1.00;;;0.82;;
21181;SDS011;10749;46.296;7.524;2022-08-21T02:06:05;1.30;;;0.80;;
21181;SDS011;10749;46.296;7.524;2022-08-21T02:08:32;0.70;;;0.70;;
21181;SDS011;10749;46.296;7.524;2022-08-21T02:10:58;1.05;;;0.80;;
21181;SDS011;10749;46.296;7.524;2022-08-21T02:13:24;0.98;;;0.80;;
21181;SDS011;10749;46.296;7.524;2022-08-21T02:15:50;1.33;;;0.93;;
21181;SDS011;10749;46.296;7.524;2022-08-21T02:18:15;1.30;;;0.90;;
21181;SDS011;10749;46.296;7.524;2022-08-21T02:20:42;1.13;;;0.80;;
21181;SDS011;10749;46.296;7.524;2022-08-21T02:23:11;0.98;;;0.70;;
21181;SDS011;10749;46.296;7.524;2022-08-21T02:25:37;1.15;;;0.93;;
21181;SDS011;10749;46.296;7.524;2022-08-21T02:28:04;0.75;;;0.65;;
21181;SDS011;10749;46.296;7.524;2022-08-21T02:30:33;1.80;;;1.10;;
21181;SDS011;10749;46.296;7.524;2022-08-21T02:33:03;1.00;;;0.80;;
21181;SDS011;10749;46.296;7.524;2022-08-21T02:35:28;2.70;;;0.70;;
21181;SDS011;10749;46.296;7.524;2022-08-21T02:37:58;1.15;;;0.70;;
21181;SDS011;10749;46.296;7.524;2022-08-21T02:40:30;1.45;;;0.90;;
21181;SDS011;10749;46.296;7.524;2022-08-21T02:42:58;1.58;;;1.10;;
21181;SDS011;10749;46.296;7.524;2022-08-21T02:45:24;1.80;;;1.17;;
21181;SDS011;10749;46.296;7.524;2022-08-21T02:47:51;3.35;;;1.52;;
21181;SDS011;10749;46.296;7.524;2022-08-21T02:50:19;3.72;;;1.60;;
21181;SDS011;10749;46.296;7.524;2022-08-21T02:52:47;2.97;;;1.20;;
21181;SDS011;10749;46.296;7.524;2022-08-21T02:55:14;3.30;;;1.25;;
21181;SDS011;10749;46.296;7.524;2022-08-21T02:57:39;2.78;;;1.15;;
21181;SDS011;10749;46.296;7.524;2022-08-21T03:00:05;2.33;;;1.23;;
21181;SDS011;10749;46.296;7.524;2022-08-21T03:02:32;2.05;;;1.17;;
21181;SDS011;10749;46.296;7.524;2022-08-21T03:04:57;2.92;;;1.10;;
21181;SDS011;10749;46.296;7.524;2022-08-21T03:07:22;2.00;;;1.33;;
21181;SDS011;10749;46.296;7.524;2022-08-21T03:09:48;2.10;;;1.38;;
21181;SDS011;10749;46.296;7.524;2022-08-21T03:12:13;3.25;;;1.33;;
21181;SDS011;10749;46.296;7.524;2022-08-21T03:14:38;2.80;;;1.40;;
21181;SDS011;10749;46.296;7.524;2022-08-21T03:17:04;3.78;;;1.35;;
21181;SDS011;10749;46.296;7.524;2022-08-21T03:19:30;2.83;;;1.25;;
21181;SDS011;10749;46.296;7.524;2022-08-21T03:21:55;3.38;;;1.40;;
21181;SDS011;10749;46.296;7.524;2022-08-21T03:24:20;2.45;;;1.50;;
21181;SDS011;10749;46.296;7.524;2022-08-21T03:26:46;4.65;;;1.48;;
21181;SDS011;10749;46.296;7.524;2022-08-21T03:29:11;1.73;;;1.13;;
21181;SDS011;10749;46.296;7.524;2022-08-21T03:31:36;3.30;;;1.27;;
21181;SDS011;10749;46.296;7.524;2022-08-21T03:34:01;2.65;;;1.20;;
21181;SDS011;10749;46.296;7.524;2022-08-21T03:36:27;1.75;;;1.30;;
21181;SDS011;10749;46.296;7.524;2022-08-21T03:38:52;2.03;;;1.40;;
21181;SDS011;10749;46.296;7.524;2022-08-21T03:41:18;3.20;;;1.40;;
21181;SDS011;10749;46.296;7.524;2022-08-21T03:43:43;2.78;;;1.10;;
21181;SDS011;10749;46.296;7.524;2022-08-21T03:46:08;2.88;;;1.20;;
21181;SDS011;10749;46.296;7.524;2022-08-21T03:48:35;1.27;;;1.00;;
21181;SDS011;10749;46.296;7.524;2022-08-21T03:51:03;1.20;;;0.90;;
21181;SDS011;10749;46.296;7.524;2022-08-21T03:53:29;1.35;;;1.00;;
21181;SDS011;10749;46.296;7.524;2022-08-21T03:55:55;2.10;;;1.00;;
21181;SDS011;10749;46.296;7.524;2022-08-21T03:58:22;2.58;;;1.10;;
21181;SDS011;10749;46.296;7.524;2022-08-21T04:00:51;2.10;;;1.10;;
21181;SDS011;10749;46.296;7.524;2022-08-21T04:03:18;1.60;;;1.00;;
21181;SDS011;10749;46.296;7.524;2022-08-21T04:05:44;1.67;;;1.10;;
21181;SDS011;10749;46.296;7.524;2022-08-21T04:08:10;2.22;;;1.00;;
21181;SDS011;10749;46.296;7.524;2022-08-21T04:10:36;2.08;;;0.95;;
21181;SDS011;10749;46.296;7.524;2022-08-21T04:13:04;1.20;;;0.90;;
21181;SDS011;10749;46.296;7.524;2022-08-21T04:15:31;1.65;;;1.13;;
21181;SDS011;10749;46.296;7.524;2022-08-21T04:17:57;1.13;;;0.95;;
21181;SDS011;10749;46.296;7.524;2022-08-21T04:20:23;2.65;;;1.38;;
21181;SDS011;10749;46.296;7.524;2022-08-21T04:22:49;3.35;;;1.20;;
21181;SDS011;10749;46.296;7.524;2022-08-21T04:25:15;1.90;;;1.30;;
21181;SDS011;10749;46.296;7.524;2022-08-21T04:27:41;1.98;;;1.02;;
21181;SDS011;10749;46.296;7.524;2022-08-21T04:30:07;3.15;;;1.30;;
21181;SDS011;10749;46.296;7.524;2022-08-21T04:32:34;3.75;;;1.05;;
21181;SDS011;10749;46.296;7.524;2022-08-21T04:35:01;3.17;;;1.48;;
21181;SDS011;10749;46.296;7.524;2022-08-21T04:37:29;2.13;;;1.55;;
21181;SDS011;10749;46.296;7.524;2022-08-21T04:39:55;2.05;;;0.98;;
21181;SDS011;10749;46.296;7.524;2022-08-21T04:42:23;1.67;;;1.20;;
21181;SDS011;10749;46.296;7.524;2022-08-21T04:44:51;1.60;;;0.90;;
21181;SDS011;10749;46.296;7.524;2022-08-21T04:47:17;3.08;;;1.63;;
21181;SDS011;10749;46.296;7.524;2022-08-21T04:49:43;2.55;;;1.48;;
21181;SDS011;10749;46.296;7.524;2022-08-21T04:52:09;4.63;;;1.60;;
21181;SDS011;10749;46.296;7.524;2022-08-21T04:54:38;2.95;;;1.60;;
21181;SDS011;10749;46.296;7.524;2022-08-21T04:57:05;2.42;;;1.52;;
21181;SDS011;10749;46.296;7.524;2022-08-21T04:59:43;2.72;;;1.50;;
21181;SDS011;10749;46.296;7.524;2022-08-21T05:02:11;1.83;;;1.33;;
21181;SDS011;10749;46.296;7.524;2022-08-21T05:04:40;1.60;;;1.20;;
21181;SDS011;10749;46.296;7.524;2022-08-21T05:07:10;3.35;;;1.70;;
21181;SDS011;10749;46.296;7.524;2022-08-21T05:09:40;2.92;;;1.33;;
21181;SDS011;10749;46.296;7.524;2022-08-21T05:12:06;2.58;;;1.48;;
21181;SDS011;10749;46.296;7.524;2022-08-21T05:14:31;2.22;;;1.17;;
21181;SDS011;10749;46.296;7.524;2022-08-21T05:16:57;2.53;;;1.20;;
21181;SDS011;10749;46.296;7.524;2022-08-21T05:19:22;2.72;;;1.38;;
21181;SDS011;10749;46.296;7.524;2022-08-21T05:21:48;2.13;;;1.52;;
21181;SDS011;10749;46.296;7.524;2022-08-21T05:24:14;3.53;;;1.40;;
21181;SDS011;10749;46.296;7.524;2022-08-21T05:26:40;3.58;;;1.33;;
21181;SDS011;10749;46.296;7.524;2022-08-21T05:29:05;3.38;;;1.30;;
21181;SDS011;10749;46.296;7.524;2022-08-21T05:31:31;2.05;;;1.15;;
21181;SDS011;10749;46.296;7.524;2022-08-21T05:33:56;1.50;;;1.25;;
21181;SDS011;10749;46.296;7.524;2022-08-21T05:36:22;2.10;;;1.30;;
21181;SDS011;10749;46.296;7.524;2022-08-21T05:38:47;3.20;;;1.65;;
21181;SDS011;10749;46.296;7.524;2022-08-21T05:41:13;2.80;;;1.25;;
21181;SDS011;10749;46.296;7.524;2022-08-21T05:43:38;3.17;;;1.60;;
21181;SDS011;10749;46.296;7.524;2022-08-21T05:46:03;1.60;;;1.40;;
21181;SDS011;10749;46.296;7.524;2022-08-21T05:48:30;2.55;;;1.23;;
21181;SDS011;10749;46.296;7.524;2022-08-21T05:50:56;2.83;;;1.40;;
21181;SDS011;10749;46.296;7.524;2022-08-21T05:53:22;3.20;;;1.42;;
21181;SDS011;10749;46.296;7.524;2022-08-21T05:55:48;1.80;;;0.90;;
21181;SDS011;10749;46.296;7.524;2022-08-21T05:58:15;3.33;;;1.45;;
21181;SDS011;10749;46.296;7.524;2022-08-21T06:00:43;3.25;;;1.38;;
21181;SDS011;10749;46.296;7.524;2022-08-21T06:03:15;2.30;;;1.30;;
21181;SDS011;10749;46.296;7.524;2022-08-21T06:05:43;3.17;;;1.23;;
21181;SDS011;10749;46.296;7.524;2022-08-21T06:08:08;1.60;;;1.00;;
21181;SDS011;10749;46.296;7.524;2022-08-21T06:10:34;2.45;;;1.50;;
21181;SDS011;10749;46.296;7.524;2022-08-21T06:12:59;2.15;;;1.20;;
21181;SDS011;10749;46.296;7.524;2022-08-21T06:15:25;2.10;;;1.27;;
21181;SDS011;10749;46.296;7.524;2022-08-21T06:17:51;1.80;;;1.33;;
21181;SDS011;10749;46.296;7.524;2022-08-21T06:20:17;1.60;;;1.20;;
21181;SDS011;10749;46.296;7.524;2022-08-21T06:22:42;3.75;;;1.50;;
21181;SDS011;10749;46.296;7.524;2022-08-21T06:25:08;2.90;;;1.25;;
21181;SDS011;10749;46.296;7.524;2022-08-21T06:27:34;4.90;;;1.05;;
21181;SDS011;10749;46.296;7.524;2022-08-21T06:29:59;3.10;;;1.25;;
21181;SDS011;10749;46.296;7.524;2022-08-21T06:32:24;1.90;;;1.10;;
21181;SDS011;10749;46.296;7.524;2022-08-21T06:34:50;1.45;;;0.85;;
21181;SDS011;10749;46.296;7.524;2022-08-21T06:37:16;1.63;;;1.00;;
21181;SDS011;10749;46.296;7.524;2022-08-21T06:39:41;2.00;;;0.80;;
21181;SDS011;10749;46.296;7.524;2022-08-21T06:42:09;2.53;;;1.10;;
21181;SDS011;10749;46.296;7.524;2022-08-21T06:44:38;4.40;;;1.10;;
21181;SDS011;10749;46.296;7.524;2022-08-21T06:47:03;3.28;;;1.40;;
21181;SDS011;10749;46.296;7.524;2022-08-21T06:49:29;1.80;;;1.08;;
21181;SDS011;10749;46.296;7.524;2022-08-21T06:51:54;1.33;;;1.05;;
21181;SDS011;10749;46.296;7.524;2022-08-21T06:54:19;1.20;;;1.00;;
21181;SDS011;10749;46.296;7.524;2022-08-21T06:56:45;1.30;;;0.90;;
21181;SDS011;10749;46.296;7.524;2022-08-21T06:59:11;1.40;;;0.77;;
21181;SDS011;10749;46.296;7.524;2022-08-21T07:01:36;1.48;;;0.95;;
21181;SDS011;10749;46.296;7.524;2022-08-21T07:04:02;2.47;;;0.77;;
21181;SDS011;10749;46.296;7.524;2022-08-21T07:06:27;1.20;;;0.93;;
21181;SDS011;10749;46.296;7.524;2022-08-21T07:08:52;1.75;;;1.10;;
21181;SDS011;10749;46.296;7.524;2022-08-21T07:11:19;2.15;;;1.00;;
21181;SDS011;10749;46.296;7.524;2022-08-21T07:13:46;2.05;;;1.00;;
21181;SDS011;10749;46.296;7.524;2022-08-21T07:16:13;1.70;;;1.00;;
21181;SDS011;10749;46.296;7.524;2022-08-21T07:18:39;1.33;;;0.98;;
21181;SDS011;10749;46.296;7.524;2022-08-21T07:21:05;4.22;;;1.25;;
21181;SDS011;10749;46.296;7.524;2022-08-21T07:23:32;2.47;;;1.02;;
21181;SDS011;10749;46.296;7.524;2022-08-21T07:26:00;1.10;;;1.00;;
21181;SDS011;10749;46.296;7.524;2022-08-21T07:28:26;2.58;;;1.02;;
21181;SDS011;10749;46.296;7.524;2022-08-21T07:30:53;2.67;;;0.70;;
21181;SDS011;10749;46.296;7.524;2022-08-21T07:33:20;1.00;;;0.82;;
21181;SDS011;10749;46.296;7.524;2022-08-21T07:35:46;2.72;;;0.93;;
21181;SDS011;10749;46.296;7.524;2022-08-21T07:38:11;1.20;;;1.00;;
21181;SDS011;10749;46.296;7.524;2022-08-21T07:40:36;2.08;;;1.10;;
21181;SDS011;10749;46.296;7.524;2022-08-21T07:43:02;1.08;;;0.95;;
21181;SDS011;10749;46.296;7.524;2022-08-21T07:45:27;1.30;;;0.88;;
21181;SDS011;10749;46.296;7.524;2022-08-21T07:47:53;1.67;;;0.90;;
21181;SDS011;10749;46.296;7.524;2022-08-21T07:50:18;2.97;;;0.90;;
21181;SDS011;10749;46.296;7.524;2022-08-21T07:52:44;2.25;;;0.98;;
21181;SDS011;10749;46.296;7.524;2022-08-21T07:55:11;1.73;;;1.00;;
21181;SDS011;10749;46.296;7.524;2022-08-21T07:57:39;2.08;;;0.90;;
21181;SDS011;10749;46.296;7.524;2022-08-21T08:00:06;2.15;;;1.10;;
21181;SDS011;10749;46.296;7.524;2022-08-21T08:02:34;2.95;;;1.00;;
21181;SDS011;10749;46.296;7.524;2022-08-21T08:05:04;1.25;;;0.80;;
21181;SDS011;10749;46.296;7.524;2022-08-21T08:07:32;1.42;;;0.70;;
21181;SDS011;10749;46.296;7.524;2022-08-21T08:09:57;2.40;;;1.27;;
21181;SDS011;10749;46.296;7.524;2022-08-21T08:12:23;1.00;;;0.90;;
21181;SDS011;10749;46.296;7.524;2022-08-21T08:14:55;1.35;;;1.00;;
21181;SDS011;10749;46.296;7.524;2022-08-21T08:17:24;2.13;;;1.13;;
21181;SDS011;10749;46.296;7.524;2022-08-21T08:19:50;2.63;;;0.93;;
21181;SDS011;10749;46.296;7.524;2022-08-21T08:22:16;1.30;;;1.00;;
21181;SDS011;10749;46.296;7.524;2022-08-21T08:24:44;1.10;;;1.00;;
21181;SDS011;10749;46.296;7.524;2022-08-21T08:27:10;1.77;;;0.90;;
21181;SDS011;10749;46.296;7.524;2022-08-21T08:29:35;1.23;;;0.90;;
21181;SDS011;10749;46.296;7.524;2022-08-21T08:32:00;0.85;;;0.70;;
21181;SDS011;10749;46.296;7.524;2022-08-21T08:34:26;1.48;;;0.80;;
21181;SDS011;10749;46.296;7.524;2022-08-21T08:36:52;2.17;;;1.20;;
21181;SDS011;10749;46.296;7.524;2022-08-21T08:39:17;0.75;;;0.70;;
21181;SDS011;10749;46.296;7.524;2022-08-21T08:41:43;1.80;;;0.80;;
21181;SDS011;10749;46.296;7.524;2022-08-21T08:44:12;2.22;;;0.90;;
21181;SDS011;10749;46.296;7.524;2022-08-21T08:49:42;0.73;;;0.73;;
21181;SDS011;10749;46.296;7.524;2022-08-21T08:52:10;1.05;;;0.95;;
21181;SDS011;10749;46.296;7.524;2022-08-21T08:54:44;1.50;;;0.90;;
21181;SDS011;10749;46.296;7.524;2022-08-21T08:57:19;1.60;;;0.80;;
21181;SDS011;10749;46.296;7.524;2022-08-21T08:59:49;1.00;;;0.90;;
21181;SDS011;10749;46.296;7.524;2022-08-21T09:02:17;2.00;;;0.75;;
21181;SDS011;10749;46.296;7.524;2022-08-21T09:04:44;1.00;;;0.88;;
21181;SDS011;10749;46.296;7.524;2022-08-21T09:10:02;1.05;;;0.82;;
21181;SDS011;10749;46.296;7.524;2022-08-21T09:21:05;1.55;;;0.90;;
21181;SDS011;10749;46.296;7.524;2022-08-21T09:23:58;2.28;;;1.23;;
21181;SDS011;10749;46.296;7.524;2022-08-21T09:26:29;1.48;;;0.93;;
21181;SDS011;10749;46.296;7.524;2022-08-21T09:29:00;1.80;;;1.05;;
21181;SDS011;10749;46.296;7.524;2022-08-21T09:31:30;1.83;;;0.95;;
21181;SDS011;10749;46.296;7.524;2022-08-21T09:33:59;1.00;;;0.90;;
21181;SDS011;10749;46.296;7.524;2022-08-21T09:36:47;1.38;;;0.80;;
21181;SDS011;10749;46.296;7.524;2022-08-21T09:39:28;1.13;;;0.73;;
21181;SDS011;10749;46.296;7.524;2022-08-21T09:42:02;1.00;;;0.90;;
21181;SDS011;10749;46.296;7.524;2022-08-21T09:44:32;1.23;;;0.57;;
21181;SDS011;10749;46.296;7.524;2022-08-21T09:47:01;1.05;;;0.90;;
21181;SDS011;10749;46.296;7.524;2022-08-21T09:49:27;1.20;;;0.85;;
21181;SDS011;10749;46.296;7.524;2022-08-21T09:52:00;1.08;;;0.60;;
21181;SDS011;10749;46.296;7.524;2022-08-21T09:54:35;1.27;;;0.95;;
21181;SDS011;10749;46.296;7.524;2022-08-21T09:59:54;1.15;;;0.70;;
21181;SDS011;10749;46.296;7.524;2022-08-21T10:02:32;2.00;;;0.70;;
21181;SDS011;10749;46.296;7.524;2022-08-21T10:05:01;1.58;;;0.65;;
21181;SDS011;10749;46.296;7.524;2022-08-21T10:07:40;0.82;;;0.65;;
21181;SDS011;10749;46.296;7.524;2022-08-21T10:10:14;0.80;;;0.60;;
21181;SDS011;10749;46.296;7.524;2022-08-21T10:15:23;1.70;;;0.50;;
21181;SDS011;10749;46.296;7.524;2022-08-21T10:20:45;0.68;;;0.63;;
21181;SDS011;10749;46.296;7.524;2022-08-21T10:31:59;1.73;;;0.52;;
21181;SDS011;10749;46.296;7.524;2022-08-21T10:40:26;1.45;;;0.50;;
21181;SDS011;10749;46.296;7.524;2022-08-21T10:48:19;1.30;;;0.63;;
21181;SDS011;10749;46.296;7.524;2022-08-21T10:50:58;1.08;;;0.80;;
21181;SDS011;10749;46.296;7.524;2022-08-21T10:56:41;1.08;;;0.55;;
21181;SDS011;10749;46.296;7.524;2022-08-21T11:01:44;0.77;;;0.50;;
21181;SDS011;10749;46.296;7.524;2022-08-21T11:07:06;0.73;;;0.57;;
21181;SDS011;10749;46.296;7.524;2022-08-21T11:09:45;0.95;;;0.75;;
21181;SDS011;10749;46.296;7.524;2022-08-21T11:12:22;0.80;;;0.60;;
21181;SDS011;10749;46.296;7.524;2022-08-21T11:17:18;0.55;;;0.40;;
21181;SDS011;10749;46.296;7.524;2022-08-21T11:19:53;0.60;;;0.50;;
21181;SDS011;10749;46.296;7.524;2022-08-21T11:25:20;0.80;;;0.60;;
21181;SDS011;10749;46.296;7.524;2022-08-21T11:30:58;0.50;;;0.50;;
21181;SDS011;10749;46.296;7.524;2022-08-21T11:33:34;0.55;;;0.50;;
21181;SDS011;10749;46.296;7.524;2022-08-21T11:42:06;3.97;;;0.65;;
21181;SDS011;10749;46.296;7.524;2022-08-21T11:44:41;1.95;;;0.57;;
21181;SDS011;10749;46.296;7.524;2022-08-21T11:50:05;0.60;;;0.60;;
21181;SDS011;10749;46.296;7.524;2022-08-21T11:52:40;0.65;;;0.60;;
21181;SDS011;10749;46.296;7.524;2022-08-21T11:55:19;0.82;;;0.60;;
21181;SDS011;10749;46.296;7.524;2022-08-21T11:57:55;0.65;;;0.47;;
21181;SDS011;10749;46.296;7.524;2022-08-21T12:00:25;0.60;;;0.50;;
21181;SDS011;10749;46.296;7.524;2022-08-21T12:02:59;0.82;;;0.60;;
21181;SDS011;10749;46.296;7.524;2022-08-21T12:05:35;2.05;;;0.70;;
21181;SDS011;10749;46.296;7.524;2022-08-21T12:08:05;0.75;;;0.60;;
21181;SDS011;10749;46.296;7.524;2022-08-21T12:10:37;1.58;;;0.70;;
21181;SDS011;10749;46.296;7.524;2022-08-21T12:13:07;0.85;;;0.65;;
21181;SDS011;10749;46.296;7.524;2022-08-21T12:15:36;1.50;;;0.60;;
21181;SDS011;10749;46.296;7.524;2022-08-21T12:18:03;1.85;;;0.60;;
21181;SDS011;10749;46.296;7.524;2022-08-21T12:23:27;0.68;;;0.57;;
21181;SDS011;10749;46.296;7.524;2022-08-21T12:28:44;0.52;;;0.50;;
21181;SDS011;10749;46.296;7.524;2022-08-21T12:31:18;0.95;;;0.50;;
21181;SDS011;10749;46.296;7.524;2022-08-21T12:33:49;1.50;;;0.40;;
21181;SDS011;10749;46.296;7.524;2022-08-21T12:36:20;0.32;;;0.28;;
21181;SDS011;10749;46.296;7.524;2022-08-21T12:39:00;0.50;;;0.50;;
21181;SDS011;10749;46.296;7.524;2022-08-21T12:41:43;0.50;;;0.40;;
21181;SDS011;10749;46.296;7.524;2022-08-21T12:44:17;0.50;;;0.40;;
21181;SDS011;10749;46.296;7.524;2022-08-21T12:46:50;0.90;;;0.40;;
21181;SDS011;10749;46.296;7.524;2022-08-21T12:49:31;1.30;;;0.32;;
21181;SDS011;10749;46.296;7.524;2022-08-21T12:54:58;0.60;;;0.40;;
21181;SDS011;10749;46.296;7.524;2022-08-21T12:57:27;0.80;;;0.60;;
21181;SDS011;10749;46.296;7.524;2022-08-21T12:59:56;0.93;;;0.50;;
21181;SDS011;10749;46.296;7.524;2022-08-21T13:02:24;0.70;;;0.60;;
21181;SDS011;10749;46.296;7.524;2022-08-21T13:04:53;2.30;;;0.40;;
21181;SDS011;10749;46.296;7.524;2022-08-21T13:07:28;0.50;;;0.50;;
21181;SDS011;10749;46.296;7.524;2022-08-21T13:10:00;0.65;;;0.50;;
21181;SDS011;10749;46.296;7.524;2022-08-21T13:12:29;5.18;;;0.80;;
21181;SDS011;10749;46.296;7.524;2022-08-21T13:14:57;0.75;;;0.60;;
21181;SDS011;10749;46.296;7.524;2022-08-21T13:17:25;0.52;;;0.52;;
21181;SDS011;10749;46.296;7.524;2022-08-21T13:19:59;1.58;;;0.60;;
21181;SDS011;10749;46.296;7.524;2022-08-21T13:22:26;0.40;;;0.40;;
21181;SDS011;10749;46.296;7.524;2022-08-21T13:24:53;1.23;;;0.52;;
21181;SDS011;10749;46.296;7.524;2022-08-21T13:30:02;0.43;;;0.43;;
21181;SDS011;10749;46.296;7.524;2022-08-21T13:32:40;0.52;;;0.43;;
21181;SDS011;10749;46.296;7.524;2022-08-21T13:35:09;0.60;;;0.40;;
21181;SDS011;10749;46.296;7.524;2022-08-21T13:37:40;0.40;;;0.30;;
21181;SDS011;10749;46.296;7.524;2022-08-21T13:40:09;0.60;;;0.57;;
21181;SDS011;10749;46.296;7.524;2022-08-21T13:42:39;2.70;;;0.50;;
21181;SDS011;10749;46.296;7.524;2022-08-21T13:45:11;0.40;;;0.30;;
21181;SDS011;10749;46.296;7.524;2022-08-21T13:47:38;1.50;;;0.50;;
21181;SDS011;10749;46.296;7.524;2022-08-21T13:50:04;0.45;;;0.40;;
21181;SDS011;10749;46.296;7.524;2022-08-21T13:52:32;4.53;;;0.60;;
21181;SDS011;10749;46.296;7.524;2022-08-21T13:55:12;0.80;;;0.32;;
21181;SDS011;10749;46.296;7.524;2022-08-21T13:57:40;0.40;;;0.40;;
21181;SDS011;10749;46.296;7.524;2022-08-21T14:00:20;0.82;;;0.40;;
21181;SDS011;10749;46.296;7.524;2022-08-21T14:02:51;0.88;;;0.50;;
21181;SDS011;10749;46.296;7.524;2022-08-21T14:05:24;0.88;;;0.70;;
21181;SDS011;10749;46.296;7.524;2022-08-21T14:07:57;0.80;;;0.60;;
21181;SDS011;10749;46.296;7.524;2022-08-21T14:10:43;1.50;;;0.40;;
21181;SDS011;10749;46.296;7.524;2022-08-21T14:13:55;0.82;;;0.50;;
21181;SDS011;10749;46.296;7.524;2022-08-21T14:16:03;4.38;;;0.57;;
21181;SDS011;10749;46.296;7.524;2022-08-21T14:18:43;1.45;;;0.40;;
21181;SDS011;10749;46.296;7.524;2022-08-21T14:21:22;0.73;;;0.47;;
21181;SDS011;10749;46.296;7.524;2022-08-21T14:24:02;0.40;;;0.40;;
21181;SDS011;10749;46.296;7.524;2022-08-21T14:26:33;2.08;;;0.57;;
21181;SDS011;10749;46.296;7.524;2022-08-21T14:29:01;0.60;;;0.50;;
21181;SDS011;10749;46.296;7.524;2022-08-21T14:31:32;0.50;;;0.50;;
21181;SDS011;10749;46.296;7.524;2022-08-21T14:33:59;0.82;;;0.50;;
21181;SDS011;10749;46.296;7.524;2022-08-21T14:36:25;0.60;;;0.50;;
21181;SDS011;10749;46.296;7.524;2022-08-21T14:38:51;0.60;;;0.45;;
21181;SDS011;10749;46.296;7.524;2022-08-21T14:41:18;0.85;;;0.50;;
21181;SDS011;10749;46.296;7.524;2022-08-21T14:43:47;0.57;;;0.50;;
21181;SDS011;10749;46.296;7.524;2022-08-21T14:46:14;0.75;;;0.43;;
21181;SDS011;10749;46.296;7.524;2022-08-21T14:48:45;0.63;;;0.47;;
21181;SDS011;10749;46.296;7.524;2022-08-21T14:51:11;0.82;;;0.50;;
21181;SDS011;10749;46.296;7.524;2022-08-21T14:53:37;1.00;;;0.50;;
21181;SDS011;10749;46.296;7.524;2022-08-21T14:56:03;0.80;;;0.60;;
21181;SDS011;10749;46.296;7.524;2022-08-21T14:58:35;0.63;;;0.50;;
21181;SDS011;10749;46.296;7.524;2022-08-21T15:01:04;1.42;;;0.80;;
21181;SDS011;10749;46.296;7.524;2022-08-21T15:03:31;1.65;;;0.68;;
21181;SDS011;10749;46.296;7.524;2022-08-21T15:05:57;1.90;;;0.70;;
21181;SDS011;10749;46.296;7.524;2022-08-21T15:08:24;1.42;;;0.82;;
21181;SDS011;10749;46.296;7.524;2022-08-21T15:10:49;1.30;;;0.60;;
21181;SDS011;10749;46.296;7.524;2022-08-21T15:13:16;1.05;;;0.70;;
21181;SDS011;10749;46.296;7.524;2022-08-21T15:15:43;1.63;;;0.90;;
21181;SDS011;10749;46.296;7.524;2022-08-21T15:18:10;1.33;;;1.02;;
21181;SDS011;10749;46.296;7.524;2022-08-21T15:20:36;1.52;;;1.00;;
21181;SDS011;10749;46.296;7.524;2022-08-21T15:23:03;1.38;;;0.90;;
21181;SDS011;10749;46.296;7.524;2022-08-21T15:25:29;1.95;;;0.80;;
21181;SDS011;10749;46.296;7.524;2022-08-21T15:27:55;5.57;;;0.77;;
21181;SDS011;10749;46.296;7.524;2022-08-21T15:30:21;1.15;;;0.63;;
21181;SDS011;10749;46.296;7.524;2022-08-21T15:32:46;1.52;;;0.55;;
21181;SDS011;10749;46.296;7.524;2022-08-21T15:35:11;2.03;;;1.00;;
21181;SDS011;10749;46.296;7.524;2022-08-21T15:37:37;1.85;;;0.90;;
21181;SDS011;10749;46.296;7.524;2022-08-21T15:40:03;1.60;;;1.00;;
21181;SDS011;10749;46.296;7.524;2022-08-21T15:42:30;3.38;;;0.85;;
21181;SDS011;10749;46.296;7.524;2022-08-21T15:44:55;1.95;;;1.05;;
21181;SDS011;10749;46.296;7.524;2022-08-21T15:47:23;1.95;;;0.82;;
21181;SDS011;10749;46.296;7.524;2022-08-21T15:49:53;0.63;;;0.57;;
21181;SDS011;10749;46.296;7.524;2022-08-21T15:52:19;0.68;;;0.60;;
21181;SDS011;10749;46.296;7.524;2022-08-21T15:54:45;2.22;;;1.00;;
21181;SDS011;10749;46.296;7.524;2022-08-21T15:57:15;1.55;;;1.00;;
21181;SDS011;10749;46.296;7.524;2022-08-21T15:59:52;1.25;;;0.80;;
21181;SDS011;10749;46.296;7.524;2022-08-21T16:02:30;2.60;;;0.88;;
21181;SDS011;10749;46.296;7.524;2022-08-21T16:04:56;1.42;;;0.70;;
21181;SDS011;10749;46.296;7.524;2022-08-21T16:07:22;1.45;;;0.60;;
21181;SDS011;10749;46.296;7.524;2022-08-21T16:09:47;0.90;;;0.55;;
21181;SDS011;10749;46.296;7.524;2022-08-21T16:12:18;1.50;;;0.70;;
21181;SDS011;10749;46.296;7.524;2022-08-21T16:14:46;0.77;;;0.50;;